< Typhoon 200812 2008 Season Typhoon 200814 >
Typhoon 200813 (SINLAKU)
General InformationTrack Information on Google MapsDetailed Wind InformationAccess Analytics MapList of All Images || NewsDisaster Info.WeblogTrackbackTyphoon FrontTyphoon ImaginationResourceGoogle EarthGE AnimationAtom FeedGeoJSON
Detalied Best Track (Time Zone = UTC)
Year Month Day Hour Lat. Long. Pressure (hPa) Wind (kt) Class Image Chart
2008 9 8 00 15.4 126.6 1004 0 2 Image Chart
2008 9 8 06 15.8 126.3 1002 0 2 Image Chart
2008 9 8 12 16.2 125.9 1002 0 2 Image Chart
2008 9 8 18 16.7 125.7 996 35 3 Image Chart
2008 9 9 00 17.3 125.5 990 45 3 Image Chart
2008 9 9 06 17.8 125.2 985 55 4 Image Chart
2008 9 9 12 18.5 125.1 975 65 5 Image Chart
2008 9 9 18 19.1 124.9 970 70 5 Image Chart
2008 9 10 00 19.8 124.4 965 80 5 Image Chart
2008 9 10 06 20.2 124.2 945 90 5 Image Chart
2008 9 10 12 20.6 124.3 935 100 5 Image Chart
2008 9 10 18 20.8 124.2 935 100 5 Image Chart
2008 9 11 00 20.9 124.4 935 100 5 Image Chart
2008 9 11 06 21.5 124.6 935 100 5 Image Chart
2008 9 11 12 22.0 124.8 935 100 5 Image Chart
2008 9 11 15 22.1 124.8 940 95 5 Image Chart
2008 9 11 18 22.3 124.8 940 95 5 Image Chart
2008 9 11 21 22.6 124.7 940 95 5 Image Chart
2008 9 12 00 22.8 124.5 940 95 5 Image Chart
2008 9 12 03 23.2 124.3 940 95 5 Image Chart
2008 9 12 06 23.4 124.0 940 95 5 Image Chart
2008 9 12 09 23.5 123.7 940 95 5 Image Chart
2008 9 12 12 23.6 123.5 945 90 5 Image Chart
2008 9 12 15 23.7 123.3 945 90 5 Image Chart
2008 9 12 18 23.8 123.1 945 90 5 Image Chart
2008 9 12 21 24.0 123.0 945 90 5 Image Chart
2008 9 13 00 24.1 122.8 945 90 5 Image Chart
2008 9 13 03 24.2 122.6 945 90 5 Image Chart
2008 9 13 06 24.3 122.5 945 90 5 Image Chart
2008 9 13 09 24.4 122.4 945 90 5 Image Chart
2008 9 13 12 24.5 122.4 950 90 5 Image Chart
2008 9 13 15 24.6 122.2 950 90 5 Image Chart
2008 9 13 18 24.7 121.9 960 80 5 Image Chart
2008 9 13 21 24.4 121.7 960 75 5 Image Chart
2008 9 14 00 24.7 121.8 975 65 5 Image Chart
2008 9 14 03 25.2 121.7 975 65 5 Image Chart
2008 9 14 06 25.3 121.3 985 60 4 Image Chart
2008 9 14 09 25.2 121.0 985 60 4 Image Chart
2008 9 14 12 25.3 120.9 985 60 4 Image Chart
2008 9 14 18 25.7 120.9 985 55 4 Image Chart
2008 9 15 00 26.2 121.2 985 50 4 Image Chart
2008 9 15 06 26.7 121.7 985 50 4 Image Chart
2008 9 15 12 26.9 122.4 985 50 4 Image Chart
2008 9 15 18 27.0 123.1 985 50 4 Image Chart
2008 9 16 00 27.1 123.5 990 45 3 Image Chart
2008 9 16 06 27.2 124.2 992 40 3 Image Chart
2008 9 16 12 27.2 124.8 992 40 3 Image Chart
2008 9 16 18 27.2 125.4 992 40 3 Image Chart
2008 9 17 00 27.3 126.2 990 45 3 Image Chart
2008 9 17 06 27.9 127.1 990 45 3 Image Chart
2008 9 17 12 28.6 127.8 985 50 4 Image Chart
2008 9 17 15 29.1 128.1 985 50 4 Image Chart
2008 9 17 18 29.4 128.4 985 50 4 Image Chart
2008 9 17 21 29.7 128.7 985 50 4 Image Chart
2008 9 18 00 30.0 129.0 985 50 4 Image Chart
2008 9 18 03 30.1 129.9 980 55 4 Image Chart
2008 9 18 06 30.5 130.5 980 60 4 Image Chart
2008 9 18 09 30.7 130.9 980 60 4 Image Chart
2008 9 18 12 30.8 131.5 985 60 4 Image Chart
2008 9 18 15 31.2 132.2 985 60 4 Image Chart
2008 9 18 18 31.8 132.6 985 60 4 Image Chart
2008 9 18 21 32.2 133.3 985 60 4 Image Chart
2008 9 19 00 32.5 134.1 980 65 5 Image Chart
2008 9 19 03 32.7 134.9 980 65 5 Image Chart
2008 9 19 06 33.1 135.7 980 65 5 Image Chart
2008 9 19 09 33.6 136.9 980 65 5 Image Chart
2008 9 19 12 33.8 137.9 985 65 5 Image Chart
2008 9 19 15 34.2 138.8 985 65 5 Image Chart
2008 9 19 18 34.3 139.8 985 65 5 Image Chart
2008 9 19 21 34.6 141.0 990 60 4 Image Chart
2008 9 20 00 34.9 142.1 990 55 4 Image Chart
2008 9 20 06 35.1 144.7 992 55 4 Image Chart
2008 9 20 12 35.2 147.1 992 50 4 Image Chart
2008 9 20 18 35.1 149.9 994 45 3 Image Chart
2008 9 21 00 35.0 152.8 996 0 6 Image Chart
2008 9 21 06 35.0 155.0 1000 0 6 Image Chart
2008 9 21 12 35.0 157.7 1000 0 6 Image Chart
2008 9 21 18 34.8 160.2 1000 0 6 Image Chart
2008 9 22 00 34.2 162.1 1002 0 6 Image Chart
2008 9 22 06 33.7 163.6 1002 0 6 Image Chart
2008 9 22 12 33.4 164.7 1004 0 6 Image Chart
2008 9 22 18 33.3 165.6 1006 0 6 Image Chart
2008 9 23 00 33.4 166.6 1006 0 6 Image Chart
2008 9 23 06 33.7 167.9 1006 0 6 Image Chart
2008 9 23 12 34.3 169.7 1008 0 6 Image Chart
Japan Meteorological Agency Best Track Data | Correction Date : 2008-10-27
< Typhoon 200812 2008 Season Typhoon 200814 >

Help